createdAt,value
2018-03-11T00:01:04.994Z,12.10
2018-03-11T00:03:32.537Z,12.10
2018-03-11T00:06:01.398Z,12.10
2018-03-11T00:08:28.984Z,12.00
2018-03-11T00:10:56.524Z,12.00
2018-03-11T00:13:24.849Z,11.90
2018-03-11T00:15:52.387Z,12.00
2018-03-11T00:18:19.943Z,12.00
2018-03-11T00:20:47.527Z,12.00
2018-03-11T00:23:15.069Z,11.90
2018-03-11T00:25:42.613Z,12.00
2018-03-11T00:28:10.193Z,12.00
2018-03-11T00:30:37.735Z,12.00
2018-03-11T00:33:06.524Z,12.00
2018-03-11T00:35:34.682Z,12.00
2018-03-11T00:38:02.227Z,12.00
2018-03-11T00:40:31.474Z,12.00
2018-03-11T00:42:59.039Z,12.00
2018-03-11T00:45:26.593Z,12.00
2018-03-11T00:47:54.712Z,11.90
2018-03-11T00:50:22.289Z,12.00
2018-03-11T00:52:49.864Z,12.00
2018-03-11T00:55:17.389Z,11.90
2018-03-11T00:57:45.768Z,11.90
2018-03-11T01:00:14.078Z,11.90
2018-03-11T01:02:42.308Z,11.90
2018-03-11T01:05:11.683Z,11.80
2018-03-11T01:07:40.019Z,11.80
2018-03-11T01:10:08.394Z,11.80
2018-03-11T01:12:35.970Z,11.80
2018-03-11T01:15:04.683Z,11.80
2018-03-11T01:17:33.476Z,11.80
2018-03-11T01:20:01.023Z,11.70
2018-03-11T01:22:28.729Z,11.70
2018-03-11T01:24:56.264Z,11.70
2018-03-11T01:27:23.791Z,11.70
2018-03-11T01:29:51.395Z,11.70
2018-03-11T01:32:19.242Z,11.60
2018-03-11T01:34:47.397Z,11.60
2018-03-11T01:37:15.774Z,11.60
2018-03-11T01:39:43.363Z,11.50
2018-03-11T01:42:11.646Z,11.50
2018-03-11T01:44:40.056Z,11.50
2018-03-11T01:47:08.600Z,11.40
2018-03-11T01:49:36.873Z,11.40
2018-03-11T01:52:04.435Z,11.40
2018-03-11T01:54:32.665Z,11.40
2018-03-11T01:57:00.220Z,11.30
2018-03-11T01:59:28.388Z,11.30
2018-03-11T02:01:55.996Z,11.30
2018-03-11T02:04:23.547Z,11.30
2018-03-11T02:06:51.698Z,11.30
2018-03-11T02:09:19.275Z,11.20
2018-03-11T02:11:46.792Z,11.20
2018-03-11T02:14:15.096Z,11.20
2018-03-11T02:16:42.670Z,11.20
2018-03-11T02:19:10.247Z,11.20
2018-03-11T02:21:37.793Z,11.20
2018-03-11T02:24:07.226Z,11.10
2018-03-11T02:26:35.055Z,11.10
2018-03-11T02:29:02.988Z,11.10
2018-03-11T02:31:30.603Z,11.10
2018-03-11T02:33:58.956Z,11.00
2018-03-11T02:36:26.475Z,11.00
2018-03-11T02:38:54.068Z,11.00
2018-03-11T02:41:21.596Z,10.90
2018-03-11T02:43:49.274Z,11.00
2018-03-11T02:46:17.612Z,10.90
2018-03-11T02:48:45.877Z,10.90
2018-03-11T02:51:13.413Z,10.90
2018-03-11T02:53:41.014Z,10.90
2018-03-11T02:56:08.558Z,10.80
2018-03-11T02:58:37.272Z,10.80
2018-03-11T03:01:06.627Z,10.80
2018-03-11T03:03:34.165Z,10.80
2018-03-11T03:06:01.855Z,10.70
2018-03-11T03:08:30.203Z,10.70
2018-03-11T03:10:58.513Z,10.70
2018-03-11T03:13:26.111Z,10.60
2018-03-11T03:15:54.195Z,10.60
2018-03-11T03:18:22.534Z,10.60
2018-03-11T03:20:50.197Z,10.60
2018-03-11T03:23:18.379Z,10.60
2018-03-11T03:25:45.968Z,10.50
2018-03-11T03:28:13.527Z,10.50
2018-03-11T03:30:41.711Z,10.50
2018-03-11T03:33:09.897Z,10.50
2018-03-11T03:35:38.231Z,10.40
2018-03-11T03:38:05.768Z,10.40
2018-03-11T03:40:33.343Z,10.40
2018-03-11T03:43:01.087Z,10.40
2018-03-11T03:45:28.630Z,10.40
2018-03-11T03:47:56.223Z,10.30
2018-03-11T03:50:24.707Z,10.40
2018-03-11T03:52:52.237Z,10.30
2018-03-11T03:55:20.774Z,10.40
2018-03-11T03:57:49.826Z,10.30
2018-03-11T04:00:17.361Z,10.30
2018-03-11T04:02:44.918Z,10.30
2018-03-11T04:05:14.136Z,10.30
2018-03-11T04:07:41.681Z,10.30
2018-03-11T04:10:11.238Z,10.30
2018-03-11T04:12:39.707Z,10.30
2018-03-11T04:15:08.836Z,10.30
2018-03-11T04:17:36.455Z,10.20
2018-03-11T04:20:05.478Z,10.20
2018-03-11T04:22:33.025Z,10.20
2018-03-11T04:25:00.619Z,10.20
2018-03-11T04:27:28.971Z,10.10
2018-03-11T04:29:56.502Z,10.10
2018-03-11T04:32:24.363Z,10.10
2018-03-11T04:34:52.664Z,10.10
2018-03-11T04:37:20.189Z,10.10
2018-03-11T04:39:47.782Z,10.00
2018-03-11T04:42:15.326Z,10.00
2018-03-11T04:44:43.594Z,10.00
2018-03-11T04:47:11.165Z,10.00
2018-03-11T04:49:39.287Z,9.90
2018-03-11T04:52:07.620Z,9.90
2018-03-11T04:54:35.150Z,9.90
2018-03-11T04:57:03.166Z,9.90
2018-03-11T04:59:31.010Z,9.80
2018-03-11T05:02:02.066Z,9.80
2018-03-11T05:04:29.591Z,9.70
2018-03-11T05:06:57.187Z,9.70
2018-03-11T05:09:24.695Z,9.70
2018-03-11T05:11:52.248Z,9.70
2018-03-11T05:14:19.834Z,9.60
2018-03-11T05:16:48.158Z,9.60
2018-03-11T05:19:15.703Z,9.60
2018-03-11T05:21:43.263Z,9.60
2018-03-11T05:24:10.913Z,9.60
2018-03-11T05:26:38.457Z,9.50
2018-03-11T05:29:06.533Z,9.50
2018-03-11T05:31:34.140Z,9.50
2018-03-11T05:34:01.678Z,9.40
2018-03-11T05:36:29.280Z,9.40
2018-03-11T05:38:57.265Z,9.50
2018-03-11T05:41:24.825Z,9.50
2018-03-11T05:43:53.351Z,9.50
2018-03-11T05:46:20.864Z,9.50
2018-03-11T05:48:48.918Z,9.40
2018-03-11T05:51:17.348Z,9.40
2018-03-11T05:53:44.856Z,9.40
2018-03-11T05:56:13.181Z,9.50
2018-03-11T05:58:41.675Z,9.40
2018-03-11T06:01:09.586Z,9.40
2018-03-11T06:03:37.880Z,9.50
2018-03-11T06:06:05.473Z,9.40
2018-03-11T06:08:33.015Z,9.40
2018-03-11T06:11:00.539Z,9.40
2018-03-11T06:13:28.986Z,9.50
2018-03-11T06:15:56.523Z,9.50
2018-03-11T06:18:24.046Z,9.50
2018-03-11T06:20:52.419Z,9.50
2018-03-11T06:23:19.981Z,9.50
2018-03-11T06:25:49.124Z,9.50
2018-03-11T06:28:16.709Z,9.50
2018-03-11T06:30:44.271Z,9.50
2018-03-11T06:33:12.398Z,9.50
2018-03-11T06:35:40.106Z,9.60
2018-03-11T06:38:07.650Z,9.60
2018-03-11T06:40:35.183Z,9.60
2018-03-11T06:43:02.779Z,9.60
2018-03-11T06:45:30.789Z,9.60
2018-03-11T06:47:58.305Z,9.60
2018-03-11T06:50:25.887Z,9.70
2018-03-11T06:52:53.927Z,9.70
2018-03-11T06:55:21.458Z,9.70
2018-03-11T06:57:49.055Z,9.70
2018-03-11T07:00:16.612Z,9.80
2018-03-11T07:02:44.730Z,9.80
2018-03-11T07:05:12.452Z,9.90
2018-03-11T07:07:40.010Z,9.90
2018-03-11T07:10:07.548Z,9.90
2018-03-11T07:12:35.150Z,10.00
2018-03-11T07:15:02.719Z,10.10
2018-03-11T07:17:30.248Z,10.10
2018-03-11T07:19:57.823Z,10.20
2018-03-11T07:22:26.919Z,10.20
2018-03-11T07:24:54.453Z,10.20
2018-03-11T07:27:22.000Z,10.20
2018-03-11T07:29:49.850Z,10.30
2018-03-11T07:32:17.390Z,10.30
2018-03-11T07:34:45.015Z,10.40
2018-03-11T07:37:13.377Z,10.40
2018-03-11T07:39:41.503Z,10.50
2018-03-11T07:42:09.506Z,10.60
2018-03-11T07:44:37.038Z,10.60
2018-03-11T07:47:05.506Z,10.80
2018-03-11T07:49:33.080Z,10.70
2018-03-11T07:52:00.892Z,10.80
2018-03-11T07:54:29.238Z,10.90
2018-03-11T07:56:58.385Z,11.00
2018-03-11T07:59:25.912Z,10.90
2018-03-11T08:01:54.257Z,11.00
2018-03-11T08:04:22.546Z,11.20
2018-03-11T08:06:50.107Z,11.20
2018-03-11T08:09:19.201Z,11.30
2018-03-11T08:11:46.739Z,11.30
2018-03-11T08:14:15.080Z,11.40
2018-03-11T08:16:43.452Z,11.40
2018-03-11T08:19:10.982Z,11.40
2018-03-11T08:21:38.570Z,11.50
2018-03-11T08:24:07.255Z,11.50
2018-03-11T08:26:34.840Z,11.60
2018-03-11T08:29:05.407Z,11.70
2018-03-11T08:31:33.876Z,11.80
2018-03-11T08:34:01.436Z,11.80
2018-03-11T08:36:29.625Z,11.80
2018-03-11T08:38:57.214Z,11.90
2018-03-11T08:41:24.842Z,11.90
2018-03-11T08:43:52.448Z,11.90
2018-03-11T08:46:19.985Z,12.00
2018-03-11T08:48:47.559Z,12.10
2018-03-11T08:51:15.323Z,12.10
2018-03-11T08:53:44.093Z,12.10
2018-03-11T08:56:12.393Z,12.10
2018-03-11T08:58:39.995Z,12.10
2018-03-11T09:01:07.711Z,12.20
2018-03-11T09:03:35.337Z,12.30
2018-03-11T09:06:02.866Z,12.30
2018-03-11T09:08:30.399Z,12.40
2018-03-11T09:10:57.994Z,12.50
2018-03-11T09:13:26.314Z,12.70
2018-03-11T09:15:54.315Z,12.60
2018-03-11T09:18:21.915Z,12.70
2018-03-11T09:20:49.492Z,12.70
2018-03-11T09:23:17.011Z,12.70
2018-03-11T09:25:44.576Z,12.80
2018-03-11T09:28:12.100Z,12.80
2018-03-11T09:30:39.859Z,12.70
2018-03-11T09:33:07.846Z,12.70
2018-03-11T09:35:35.750Z,12.80
2018-03-11T09:38:04.436Z,12.80
2018-03-11T09:40:33.077Z,12.80
2018-03-11T09:43:00.662Z,12.90
2018-03-11T09:45:29.804Z,12.90
2018-03-11T09:47:57.830Z,12.90
2018-03-11T09:50:25.564Z,12.90
2018-03-11T09:52:53.099Z,12.90
2018-03-11T09:55:20.772Z,13.00
2018-03-11T09:57:49.365Z,12.90
2018-03-11T10:00:16.930Z,13.00
2018-03-11T10:02:46.655Z,12.90
2018-03-11T10:05:14.190Z,12.90
2018-03-11T10:07:42.022Z,12.90
2018-03-11T10:10:11.923Z,12.80
2018-03-11T10:12:39.639Z,12.80
2018-03-11T10:15:08.714Z,12.80
2018-03-11T10:17:37.174Z,12.80
2018-03-11T10:20:08.961Z,12.80
2018-03-11T10:22:36.812Z,12.80
2018-03-11T10:25:07.317Z,12.90
2018-03-11T10:27:35.668Z,12.90
2018-03-11T10:30:05.785Z,12.90
2018-03-11T10:32:33.312Z,13.00
2018-03-11T10:35:02.064Z,13.00
2018-03-11T10:37:31.034Z,13.10
2018-03-11T10:39:58.583Z,13.10
2018-03-11T10:42:26.105Z,13.10
2018-03-11T10:44:53.732Z,13.20
2018-03-11T10:47:21.699Z,13.30
2018-03-11T10:49:49.892Z,13.40
2018-03-11T10:52:17.437Z,13.40
2018-03-11T10:54:45.599Z,13.50
2018-03-11T10:57:14.613Z,13.50
2018-03-11T10:59:42.182Z,13.50
2018-03-11T11:02:22.816Z,13.70
2018-03-11T11:04:56.235Z,13.70
2018-03-11T11:07:23.775Z,13.70
2018-03-11T11:09:51.308Z,13.80
2018-03-11T11:12:18.925Z,13.80
2018-03-11T11:14:46.465Z,13.80
2018-03-11T11:17:14.024Z,13.90
2018-03-11T11:19:42.293Z,14.00
2018-03-11T11:22:09.840Z,14.00
2018-03-11T11:24:37.396Z,14.10
2018-03-11T11:27:05.016Z,14.20
2018-03-11T11:29:34.219Z,14.30
2018-03-11T11:32:02.027Z,14.30
2018-03-11T11:34:29.597Z,14.40
2018-03-11T11:36:57.889Z,14.40
2018-03-11T11:39:25.484Z,14.50
2018-03-11T11:41:53.043Z,14.50
2018-03-11T11:44:20.595Z,14.50
2018-03-11T11:46:54.406Z,14.50
2018-03-11T11:49:22.782Z,14.60
2018-03-11T11:51:51.662Z,14.70
2018-03-11T11:54:19.188Z,14.60
2018-03-11T11:56:47.542Z,14.70
2018-03-11T11:59:15.146Z,14.70
2018-03-11T12:01:42.719Z,14.70
2018-03-11T12:04:11.040Z,14.60
2018-03-11T12:06:38.844Z,14.60
2018-03-11T12:09:06.574Z,14.70
2018-03-11T12:11:34.195Z,14.70
2018-03-11T12:14:02.082Z,14.80
2018-03-11T12:16:29.661Z,14.80
2018-03-11T12:18:57.465Z,14.80
2018-03-11T12:21:25.031Z,14.80
2018-03-11T12:23:52.605Z,14.80
2018-03-11T12:26:20.970Z,14.80
2018-03-11T12:28:48.527Z,14.80
2018-03-11T12:31:17.010Z,14.80
2018-03-11T12:33:45.566Z,14.80
2018-03-11T12:36:13.088Z,14.80
2018-03-11T12:38:40.667Z,14.90
2018-03-11T12:41:08.305Z,15.00
2018-03-11T12:43:35.861Z,15.10
2018-03-11T12:46:03.450Z,15.20
2018-03-11T12:48:31.156Z,15.30
2018-03-11T12:50:58.703Z,15.30
2018-03-11T12:53:26.247Z,15.30
2018-03-11T12:55:54.468Z,15.30
2018-03-11T12:58:22.487Z,15.30
2018-03-11T13:00:50.069Z,15.40
2018-03-11T13:03:18.101Z,15.40
2018-03-11T13:05:46.614Z,15.40
2018-03-11T13:08:14.220Z,15.50
2018-03-11T13:10:41.806Z,15.50
2018-03-11T13:13:09.386Z,15.50
2018-03-11T13:15:38.408Z,15.60
2018-03-11T13:18:05.996Z,15.60
2018-03-11T13:20:45.363Z,15.60
2018-03-11T13:23:13.778Z,15.60
2018-03-11T13:25:41.431Z,15.60
2018-03-11T13:28:20.803Z,15.60
2018-03-11T13:30:49.023Z,15.60
2018-03-11T13:33:28.324Z,15.60
2018-03-11T13:35:55.987Z,15.60
2018-03-11T13:38:35.959Z,15.60
2018-03-11T13:41:04.153Z,15.60
2018-03-11T13:43:32.593Z,15.70
2018-03-11T13:46:11.964Z,15.70
2018-03-11T13:48:44.320Z,15.70
2018-03-11T13:51:11.982Z,15.80
2018-03-11T13:53:50.860Z,15.80
2018-03-11T13:56:18.909Z,15.90
2018-03-11T13:58:46.597Z,15.90
2018-03-11T14:01:14.622Z,16.00
2018-03-11T14:03:42.185Z,16.10
2018-03-11T14:06:09.929Z,16.20
2018-03-11T14:08:37.458Z,16.30
2018-03-11T14:11:05.797Z,16.40
2018-03-11T14:13:33.613Z,16.40
2018-03-11T14:16:01.914Z,16.50
2018-03-11T14:18:29.513Z,16.50
2018-03-11T14:20:57.092Z,16.50
2018-03-11T14:23:24.628Z,16.60
2018-03-11T14:25:52.272Z,16.60
2018-03-11T14:28:20.427Z,16.60
2018-03-11T14:30:48.937Z,16.60
2018-03-11T14:33:17.628Z,16.70
2018-03-11T14:35:45.225Z,16.70
2018-03-11T14:38:13.701Z,16.70
2018-03-11T14:40:42.089Z,16.70
2018-03-11T14:43:11.380Z,16.70
2018-03-11T14:45:39.841Z,16.70
2018-03-11T14:48:07.371Z,16.60
2018-03-11T14:50:36.072Z,16.60
2018-03-11T14:53:04.820Z,16.60
2018-03-11T14:55:32.360Z,16.60
2018-03-11T14:57:59.935Z,16.60
2018-03-11T15:00:28.258Z,16.60
2018-03-11T15:02:56.044Z,16.60
2018-03-11T15:05:23.706Z,16.60
2018-03-11T15:07:52.142Z,16.60
2018-03-11T15:10:20.319Z,16.70
2018-03-11T15:12:47.850Z,16.70
2018-03-11T15:15:15.996Z,16.70
2018-03-11T15:17:43.977Z,16.70
2018-03-11T15:20:11.564Z,16.70
2018-03-11T15:22:39.909Z,16.70
2018-03-11T15:25:08.396Z,16.70
2018-03-11T15:27:37.248Z,16.70
2018-03-11T15:30:06.888Z,16.60
2018-03-11T15:32:35.150Z,16.60
2018-03-11T15:35:06.612Z,16.60
2018-03-11T15:37:34.412Z,16.60
2018-03-11T15:40:03.325Z,16.60
2018-03-11T15:42:31.101Z,16.60
2018-03-11T15:44:58.615Z,16.60
2018-03-11T15:47:26.948Z,16.50
2018-03-11T15:49:54.821Z,16.50
2018-03-11T15:52:22.882Z,16.50
2018-03-11T15:54:50.446Z,16.50
2018-03-11T15:57:18.224Z,16.40
2018-03-11T15:59:45.815Z,16.40
2018-03-11T16:02:14.266Z,16.30
2018-03-11T16:04:43.037Z,16.30
2018-03-11T16:07:10.591Z,16.30
2018-03-11T16:09:38.203Z,16.30
2018-03-11T16:12:06.731Z,16.20
2018-03-11T16:14:34.599Z,16.20
2018-03-11T16:17:04.494Z,16.20
2018-03-11T16:19:32.081Z,16.10
2018-03-11T16:21:59.641Z,16.10
2018-03-11T16:24:28.699Z,16.00
2018-03-11T16:26:56.868Z,16.00
2018-03-11T16:29:24.469Z,16.00
2018-03-11T16:31:52.099Z,15.90
2018-03-11T16:34:21.709Z,15.80
2018-03-11T16:36:49.312Z,15.80
2018-03-11T16:39:16.861Z,15.80
2018-03-11T16:41:45.577Z,15.70
2018-03-11T16:44:13.190Z,15.70
2018-03-11T16:46:41.361Z,15.70
2018-03-11T16:49:09.779Z,15.60
2018-03-11T16:51:37.332Z,15.60
2018-03-11T16:54:05.033Z,15.50
2018-03-11T16:56:32.626Z,15.50
2018-03-11T16:59:00.509Z,15.50
2018-03-11T17:01:28.045Z,15.50
2018-03-11T17:03:55.733Z,15.40
2018-03-11T17:06:23.420Z,15.30
2018-03-11T17:08:51.030Z,15.30
2018-03-11T17:11:18.832Z,15.30
2018-03-11T17:13:46.392Z,15.30
2018-03-11T17:16:15.617Z,15.30
2018-03-11T17:18:44.996Z,15.20
2018-03-11T17:21:12.559Z,15.20
2018-03-11T17:23:40.177Z,15.20
2018-03-11T17:26:08.865Z,15.10
2018-03-11T17:28:36.411Z,15.10
2018-03-11T17:31:04.791Z,15.00
2018-03-11T17:33:32.350Z,15.00
2018-03-11T17:36:00.699Z,15.00
2018-03-11T17:38:28.841Z,15.00
2018-03-11T17:40:56.427Z,14.90
2018-03-11T17:43:24.492Z,14.90
2018-03-11T17:45:52.530Z,14.90
2018-03-11T17:48:20.571Z,14.90
2018-03-11T17:50:48.191Z,14.80
2018-03-11T17:53:15.765Z,14.80
2018-03-11T17:55:45.349Z,14.80
2018-03-11T17:58:12.947Z,14.70
2018-03-11T18:00:40.779Z,14.70
2018-03-11T18:03:08.326Z,14.70
2018-03-11T18:05:35.856Z,14.60
2018-03-11T18:08:03.772Z,14.60
2018-03-11T18:10:31.334Z,14.60
2018-03-11T18:13:00.053Z,14.60
2018-03-11T18:15:27.729Z,14.50
2018-03-11T18:17:56.052Z,14.40
2018-03-11T18:20:24.672Z,14.40
2018-03-11T18:22:52.392Z,14.40
2018-03-11T18:25:19.928Z,14.40
2018-03-11T18:27:47.739Z,14.40
2018-03-11T18:30:15.261Z,14.40
2018-03-11T18:32:42.798Z,14.40
2018-03-11T18:35:11.427Z,14.30
2018-03-11T18:37:40.374Z,14.30
2018-03-11T18:40:11.889Z,14.10
2018-03-11T18:42:39.877Z,14.10
2018-03-11T18:45:08.411Z,14.10
2018-03-11T18:47:36.197Z,14.10
2018-03-11T18:50:06.091Z,14.20
2018-03-11T18:52:33.697Z,14.10
2018-03-11T18:55:02.002Z,14.20
2018-03-11T18:57:30.689Z,14.10
2018-03-11T18:59:58.334Z,14.10
2018-03-11T19:02:26.136Z,14.10
2018-03-11T19:04:54.742Z,14.10
2018-03-11T19:07:23.435Z,14.10
2018-03-11T19:09:50.993Z,14.10
2018-03-11T19:12:19.134Z,14.10
2018-03-11T19:14:47.445Z,14.10
2018-03-11T19:17:15.716Z,14.10
2018-03-11T19:19:43.382Z,14.10
2018-03-11T19:22:10.926Z,14.20
2018-03-11T19:24:38.457Z,14.10
2018-03-11T19:27:06.878Z,14.20
2018-03-11T19:29:34.445Z,14.10
2018-03-11T19:32:02.881Z,14.20
2018-03-11T19:34:31.515Z,14.10
2018-03-11T19:36:59.142Z,14.10
2018-03-11T19:39:26.714Z,14.20
2018-03-11T19:41:55.287Z,14.20
2018-03-11T19:44:23.141Z,14.20
2018-03-11T19:46:51.907Z,14.10
2018-03-11T19:49:20.050Z,14.10
2018-03-11T19:51:47.693Z,14.20
2018-03-11T19:54:15.258Z,14.10
2018-03-11T19:56:43.412Z,14.10
2018-03-11T19:59:11.013Z,14.10
2018-03-11T20:01:38.591Z,14.10
2018-03-11T20:04:06.130Z,14.00
2018-03-11T20:06:33.877Z,14.10
2018-03-11T20:09:02.346Z,14.00
2018-03-11T20:11:29.928Z,14.10
2018-03-11T20:13:57.525Z,14.10
2018-03-11T20:16:26.981Z,14.10
2018-03-11T20:18:55.411Z,14.10
2018-03-11T20:21:22.996Z,14.10
2018-03-11T20:23:52.260Z,14.00
2018-03-11T20:26:19.879Z,14.00
2018-03-11T20:28:47.456Z,14.00
2018-03-11T20:31:15.162Z,14.00
2018-03-11T20:33:43.638Z,14.00
2018-03-11T20:36:11.659Z,13.90
2018-03-11T20:38:39.682Z,13.90
2018-03-11T20:41:08.785Z,14.00
2018-03-11T20:43:36.360Z,14.00
2018-03-11T20:46:03.985Z,13.90
2018-03-11T20:48:31.524Z,13.80
2018-03-11T20:50:59.120Z,13.80
2018-03-11T20:53:27.812Z,13.60
2018-03-11T20:55:57.064Z,13.60
2018-03-11T20:58:24.613Z,13.60
2018-03-11T21:00:52.139Z,13.70
2018-03-11T21:03:20.772Z,13.80
2018-03-11T21:05:48.342Z,13.80
2018-03-11T21:08:15.907Z,13.80
2018-03-11T21:10:43.667Z,13.90
2018-03-11T21:13:11.211Z,13.90
2018-03-11T21:15:38.877Z,13.80
2018-03-11T21:18:06.497Z,13.70
2018-03-11T21:20:34.664Z,13.80
2018-03-11T21:23:03.078Z,13.70
2018-03-11T21:25:30.879Z,13.70
2018-03-11T21:27:58.729Z,13.70
2018-03-11T21:30:31.756Z,13.70
2018-03-11T21:32:59.310Z,13.70
2018-03-11T21:35:27.664Z,13.60
2018-03-11T21:37:57.478Z,13.60
2018-03-11T21:40:25.021Z,13.70
2018-03-11T21:42:52.898Z,13.80
2018-03-11T21:45:20.671Z,13.70
2018-03-11T22:00:43.397Z,13.80
2018-03-11T22:03:10.933Z,13.60
2018-03-11T22:05:38.455Z,13.50
2018-03-11T22:08:07.526Z,13.60
2018-03-11T22:10:35.545Z,13.60
2018-03-11T22:13:04.375Z,13.70
2018-03-11T22:15:32.723Z,13.70
2018-03-11T22:18:01.037Z,13.80
2018-03-11T22:20:28.607Z,13.80
2018-03-11T22:22:58.682Z,13.80
2018-03-11T22:25:27.162Z,13.80
2018-03-11T22:27:54.843Z,13.80
2018-03-11T22:30:23.131Z,13.80
2018-03-11T22:32:50.656Z,13.80
2018-03-11T22:35:18.440Z,13.80
2018-03-11T22:37:46.733Z,13.70
2018-03-11T22:40:14.267Z,13.70
2018-03-11T22:42:42.147Z,13.70
2018-03-11T22:45:11.126Z,13.70
2018-03-11T22:47:38.688Z,13.70
2018-03-11T22:50:08.065Z,13.70
2018-03-11T22:52:35.668Z,13.70
2018-03-11T22:55:04.299Z,13.70
2018-03-11T22:57:32.645Z,13.80
2018-03-11T23:00:01.317Z,13.70
2018-03-11T23:02:28.851Z,13.80
2018-03-11T23:04:56.375Z,13.90
2018-03-11T23:07:25.108Z,13.90
2018-03-11T23:09:52.725Z,13.90
2018-03-11T23:12:21.072Z,14.00
2018-03-11T23:14:49.200Z,14.00
2018-03-11T23:17:16.792Z,14.00
2018-03-11T23:19:44.325Z,14.10
2018-03-11T23:22:11.933Z,14.10
2018-03-11T23:24:39.477Z,14.10
2018-03-11T23:27:08.512Z,14.10
2018-03-11T23:29:36.238Z,14.10
2018-03-11T23:32:03.795Z,14.00
2018-03-11T23:34:31.313Z,14.00
2018-03-11T23:36:59.666Z,14.10
2018-03-11T23:39:27.254Z,14.10
2018-03-11T23:41:55.685Z,14.10
2018-03-11T23:44:23.288Z,14.00
2018-03-11T23:46:51.567Z,14.00
2018-03-11T23:49:19.801Z,14.00
2018-03-11T23:51:47.399Z,14.00
2018-03-11T23:54:14.963Z,14.00
2018-03-11T23:56:42.572Z,14.00
2018-03-11T23:59:10.156Z,14.00
